sensor_id;sensor_type;location;lat;lon;timestamp;pressure;altitude;pressure_sealevel;temperature;humidity
27685;BME280;46113;50.130;8.526;2023-02-28T05:02:45;100131.25;;;-6.78;65.21
27685;BME280;46113;50.130;8.526;2023-02-28T05:05:12;100133.16;;;-7.03;66.57
27685;BME280;46113;50.130;8.526;2023-02-28T05:07:44;100131.41;;;-7.04;67.18
27685;BME280;46113;50.130;8.526;2023-02-28T05:10:14;100128.97;;;-6.99;66.88
27685;BME280;46113;50.130;8.526;2023-02-28T05:12:40;100134.53;;;-7.14;66.86
27685;BME280;46113;50.130;8.526;2023-02-28T05:15:10;100131.97;;;-7.14;66.81
27685;BME280;46113;50.130;8.526;2023-02-28T05:17:38;100134.66;;;-7.40;67.91
27685;BME280;46113;50.130;8.526;2023-02-28T05:20:06;100140.25;;;-7.24;67.42
27685;BME280;46113;50.130;8.526;2023-02-28T05:22:41;100135.81;;;-7.30;67.35
27685;BME280;46113;50.130;8.526;2023-02-28T05:25:21;100144.38;;;-7.30;67.06
27685;BME280;46113;50.130;8.526;2023-02-28T05:27:48;100149.34;;;-7.36;67.04
27685;BME280;46113;50.130;8.526;2023-02-28T05:30:15;100142.66;;;-7.31;67.33
27685;BME280;46113;50.130;8.526;2023-02-28T05:32:42;100147.75;;;-7.32;67.27
27685;BME280;46113;50.130;8.526;2023-02-28T05:35:10;100156.34;;;-7.32;67.10
27685;BME280;46113;50.130;8.526;2023-02-28T05:37:38;100152.75;;;-7.37;67.17
27685;BME280;46113;50.130;8.526;2023-02-28T05:40:06;100157.13;;;-7.34;66.95
27685;BME280;46113;50.130;8.526;2023-02-28T05:42:37;100157.97;;;-7.34;67.02
27685;BME280;46113;50.130;8.526;2023-02-28T05:45:53;100160.44;;;-7.38;67.08
27685;BME280;46113;50.130;8.526;2023-02-28T05:48:35;100158.47;;;-7.46;65.75
27685;BME280;46113;50.130;8.526;2023-02-28T05:51:02;100163.13;;;-7.63;66.42
27685;BME280;46113;50.130;8.526;2023-02-28T05:53:31;100161.75;;;-7.51;66.41
27685;BME280;46113;50.130;8.526;2023-02-28T05:56:03;100164.16;;;-7.58;66.42
27685;BME280;46113;50.130;8.526;2023-02-28T05:58:30;100162.34;;;-7.60;66.92
27685;BME280;46113;50.130;8.526;2023-02-28T06:01:23;100156.63;;;-7.51;66.66
27685;BME280;46113;50.130;8.526;2023-02-28T06:03:50;100166.97;;;-7.48;66.47
27685;BME280;46113;50.130;8.526;2023-02-28T06:06:19;100160.91;;;-7.50;67.20
27685;BME280;46113;50.130;8.526;2023-02-28T06:08:46;100162.59;;;-7.51;66.76
27685;BME280;46113;50.130;8.526;2023-02-28T06:11:15;100160.56;;;-7.63;66.88
27685;BME280;46113;50.130;8.526;2023-02-28T06:13:42;100164.16;;;-7.56;67.26
27685;BME280;46113;50.130;8.526;2023-02-28T06:16:11;100169.41;;;-7.53;67.04
27685;BME280;46113;50.130;8.526;2023-02-28T06:18:38;100169.53;;;-7.48;66.28
27685;BME280;46113;50.130;8.526;2023-02-28T06:21:05;100167.34;;;-7.36;66.01
27685;BME280;46113;50.130;8.526;2023-02-28T06:23:32;100171.91;;;-7.27;65.96
27685;BME280;46113;50.130;8.526;2023-02-28T06:25:59;100167.25;;;-7.39;66.35
27685;BME280;46113;50.130;8.526;2023-02-28T06:28:26;100170.03;;;-7.33;65.16
27685;BME280;46113;50.130;8.526;2023-02-28T06:30:53;100174.97;;;-7.39;65.42
27685;BME280;46113;50.130;8.526;2023-02-28T06:33:20;100181.22;;;-7.31;65.10
27685;BME280;46113;50.130;8.526;2023-02-28T06:35:50;100180.88;;;-7.43;64.71
27685;BME280;46113;50.130;8.526;2023-02-28T06:38:17;100185.25;;;-7.39;64.58
27685;BME280;46113;50.130;8.526;2023-02-28T06:40:44;100188.13;;;-7.30;65.05
27685;BME280;46113;50.130;8.526;2023-02-28T06:43:29;100183.53;;;-7.11;64.23
27685;BME280;46113;50.130;8.526;2023-02-28T06:49:25;100198.19;;;-7.08;64.83
27685;BME280;46113;50.130;8.526;2023-02-28T06:51:52;100203.47;;;-7.33;65.71
27685;BME280;46113;50.130;8.526;2023-02-28T06:54:18;100202.09;;;-7.21;64.76
27685;BME280;46113;50.130;8.526;2023-02-28T06:56:45;100199.56;;;-6.89;63.73
27685;BME280;46113;50.130;8.526;2023-02-28T06:59:13;100208.47;;;-6.78;64.00
27685;BME280;46113;50.130;8.526;2023-02-28T11:34:26;100196.03;;;-1.64;42.71
27685;BME280;46113;50.130;8.526;2023-02-28T11:36:58;100192.66;;;-1.57;41.76
27685;BME280;46113;50.130;8.526;2023-02-28T11:39:26;100185.81;;;-1.44;42.28
27685;BME280;46113;50.130;8.526;2023-02-28T11:47:22;100193.44;;;-1.69;42.22
27685;BME280;46113;50.130;8.526;2023-02-28T11:50:46;100192.59;;;-1.61;42.21
27685;BME280;46113;50.130;8.526;2023-02-28T11:52:54;100173.69;;;-1.43;41.98
27685;BME280;46113;50.130;8.526;2023-02-28T11:55:27;100166.75;;;-1.47;41.70
27685;BME280;46113;50.130;8.526;2023-02-28T11:58:03;100177.91;;;-1.61;42.06
27685;BME280;46113;50.130;8.526;2023-02-28T12:03:43;100172.13;;;-1.13;42.06
27685;BME280;46113;50.130;8.526;2023-02-28T12:11:29;100174.66;;;-1.27;42.87
27685;BME280;46113;50.130;8.526;2023-02-28T12:14:25;100182.44;;;-1.27;42.50
27685;BME280;46113;50.130;8.526;2023-02-28T12:17:23;100180.84;;;-1.05;42.04
27685;BME280;46113;50.130;8.526;2023-02-28T12:22:32;100178.03;;;-1.42;42.87
27685;BME280;46113;50.130;8.526;2023-02-28T12:27:39;100174.53;;;-1.46;43.33
27685;BME280;46113;50.130;8.526;2023-02-28T12:30:25;100166.91;;;-1.18;42.95
27685;BME280;46113;50.130;8.526;2023-02-28T12:33:02;100176.34;;;-1.37;42.35
27685;BME280;46113;50.130;8.526;2023-02-28T12:35:37;100168.53;;;-1.35;42.95
27685;BME280;46113;50.130;8.526;2023-02-28T12:38:19;100167.75;;;-1.23;42.67
27685;BME280;46113;50.130;8.526;2023-02-28T12:40:52;100160.78;;;-1.32;42.92
27685;BME280;46113;50.130;8.526;2023-02-28T12:43:22;100164.41;;;-1.00;42.76
27685;BME280;46113;50.130;8.526;2023-02-28T12:49:23;100150.41;;;-1.31;42.34
27685;BME280;46113;50.130;8.526;2023-02-28T12:51:52;100157.34;;;-1.30;43.63
27685;BME280;46113;50.130;8.526;2023-02-28T12:54:28;100151.41;;;-1.00;43.01
27685;BME280;46113;50.130;8.526;2023-02-28T12:59:45;100152.34;;;-0.84;41.75
27685;BME280;46113;50.130;8.526;2023-02-28T13:05:18;100146.31;;;-0.82;42.60
27685;BME280;46113;50.130;8.526;2023-02-28T13:08:25;100152.41;;;-0.66;42.26
27685;BME280;46113;50.130;8.526;2023-02-28T13:11:00;100135.72;;;-1.21;42.77
27685;BME280;46113;50.130;8.526;2023-02-28T13:13:38;100133.28;;;-0.80;42.96
27685;BME280;46113;50.130;8.526;2023-02-28T13:16:11;100135.88;;;-0.88;43.40
27685;BME280;46113;50.130;8.526;2023-02-28T13:18:45;100141.03;;;-0.96;42.16
27685;BME280;46113;50.130;8.526;2023-02-28T13:21:24;100143.69;;;-0.85;42.99
27685;BME280;46113;50.130;8.526;2023-02-28T13:34:33;100141.91;;;-0.91;42.90
27685;BME280;46113;50.130;8.526;2023-02-28T13:40:31;100128.06;;;-0.91;42.01
27685;BME280;46113;50.130;8.526;2023-02-28T13:43:07;100130.63;;;-1.07;42.67
27685;BME280;46113;50.130;8.526;2023-02-28T13:45:35;100126.19;;;-1.28;41.98
27685;BME280;46113;50.130;8.526;2023-02-28T13:48:16;100119.41;;;-0.90;41.87
27685;BME280;46113;50.130;8.526;2023-02-28T13:50:44;100122.94;;;-0.68;41.81
27685;BME280;46113;50.130;8.526;2023-02-28T13:53:28;100143.72;;;-0.74;42.35
27685;BME280;46113;50.130;8.526;2023-02-28T13:56:24;100119.44;;;-0.70;41.80
27685;BME280;46113;50.130;8.526;2023-02-28T13:59:12;100123.75;;;-0.81;42.37
27685;BME280;46113;50.130;8.526;2023-02-28T14:04:49;100122.06;;;-0.60;42.49
27685;BME280;46113;50.130;8.526;2023-02-28T14:07:33;100129.84;;;-0.76;42.06
27685;BME280;46113;50.130;8.526;2023-02-28T14:10:07;100121.22;;;-0.59;42.22
27685;BME280;46113;50.130;8.526;2023-02-28T14:18:31;100107.31;;;-0.71;42.66
27685;BME280;46113;50.130;8.526;2023-02-28T14:21:16;100105.63;;;-0.63;42.41
27685;BME280;46113;50.130;8.526;2023-02-28T14:35:03;100097.78;;;-0.81;42.33
27685;BME280;46113;50.130;8.526;2023-02-28T14:37:39;100098.69;;;-0.67;42.84
27685;BME280;46113;50.130;8.526;2023-02-28T14:40:27;100099.56;;;-0.61;42.32
27685;BME280;46113;50.130;8.526;2023-02-28T14:42:56;100089.16;;;-0.54;42.75
27685;BME280;46113;50.130;8.526;2023-02-28T14:45:24;100092.63;;;-0.66;42.41
27685;BME280;46113;50.130;8.526;2023-02-28T14:47:51;100088.31;;;-0.43;42.43
27685;BME280;46113;50.130;8.526;2023-02-28T14:50:36;100089.19;;;-0.43;42.15
27685;BME280;46113;50.130;8.526;2023-02-28T14:53:06;100088.25;;;-0.70;42.61
27685;BME280;46113;50.130;8.526;2023-02-28T14:55:45;100079.63;;;-0.70;42.96
27685;BME280;46113;50.130;8.526;2023-02-28T14:58:22;100083.09;;;-0.57;43.14
27685;BME280;46113;50.130;8.526;2023-02-28T15:00:51;100089.09;;;-0.88;43.01
27685;BME280;46113;50.130;8.526;2023-02-28T15:05:57;100092.56;;;-0.95;43.65
27685;BME280;46113;50.130;8.526;2023-02-28T15:08:28;100089.94;;;-1.01;44.58
27685;BME280;46113;50.130;8.526;2023-02-28T15:11:17;100082.94;;;-1.18;43.74
27685;BME280;46113;50.130;8.526;2023-02-28T15:13:51;100081.97;;;-1.44;43.93
27685;BME280;46113;50.130;8.526;2023-02-28T15:16:35;100085.56;;;-1.15;43.50
27685;BME280;46113;50.130;8.526;2023-02-28T15:21:35;100084.66;;;-1.23;44.01
27685;BME280;46113;50.130;8.526;2023-02-28T15:26:35;100094.06;;;-1.46;45.09
27685;BME280;46113;50.130;8.526;2023-02-28T15:29:13;100089.00;;;-1.19;44.60
27685;BME280;46113;50.130;8.526;2023-02-28T15:32:01;100095.91;;;-1.24;44.36
27685;BME280;46113;50.130;8.526;2023-02-28T15:34:39;100096.84;;;-0.97;43.74
27685;BME280;46113;50.130;8.526;2023-02-28T15:37:41;100096.88;;;-0.96;43.76
27685;BME280;46113;50.130;8.526;2023-02-28T15:43:14;100088.19;;;-1.03;44.42
27685;BME280;46113;50.130;8.526;2023-02-28T15:48:16;100087.19;;;-1.36;47.85
27685;BME280;46113;50.130;8.526;2023-02-28T15:50:44;100082.84;;;-1.45;48.43
27685;BME280;46113;50.130;8.526;2023-02-28T15:53:16;100083.56;;;-1.67;50.30
27685;BME280;46113;50.130;8.526;2023-02-28T15:55:44;100083.34;;;-2.02;51.58
27685;BME280;46113;50.130;8.526;2023-02-28T15:58:14;100080.56;;;-2.27;51.33
27685;BME280;46113;50.130;8.526;2023-02-28T16:00:44;100086.78;;;-2.06;50.79
27685;BME280;46113;50.130;8.526;2023-02-28T16:03:38;100080.81;;;-1.96;51.15
27685;BME280;46113;50.130;8.526;2023-02-28T16:08:57;100087.22;;;-2.55;53.84
27685;BME280;46113;50.130;8.526;2023-02-28T16:11:26;100086.41;;;-2.51;53.17
27685;BME280;46113;50.130;8.526;2023-02-28T16:13:53;100081.59;;;-3.00;54.25
27685;BME280;46113;50.130;8.526;2023-02-28T16:16:23;100087.75;;;-2.89;53.77
27685;BME280;46113;50.130;8.526;2023-02-28T16:18:50;100090.34;;;-2.92;54.73
27685;BME280;46113;50.130;8.526;2023-02-28T16:21:17;100093.53;;;-3.13;55.68
27685;BME280;46113;50.130;8.526;2023-02-28T16:23:44;100099.59;;;-3.11;54.85
27685;BME280;46113;50.130;8.526;2023-02-28T16:26:19;100103.75;;;-3.24;55.71
27685;BME280;46113;50.130;8.526;2023-02-28T16:28:46;100106.25;;;-3.32;55.72
27685;BME280;46113;50.130;8.526;2023-02-28T16:31:15;100105.53;;;-3.20;55.64
27685;BME280;46113;50.130;8.526;2023-02-28T16:33:43;100103.59;;;-3.37;55.76
27685;BME280;46113;50.130;8.526;2023-02-28T16:36:19;100103.44;;;-3.48;57.15
27685;BME280;46113;50.130;8.526;2023-02-28T16:38:45;100109.19;;;-3.69;57.32
27685;BME280;46113;50.130;8.526;2023-02-28T16:41:16;100110.13;;;-3.64;56.95
27685;BME280;46113;50.130;8.526;2023-02-28T16:43:47;100109.44;;;-3.52;56.98
27685;BME280;46113;50.130;8.526;2023-02-28T16:46:15;100119.66;;;-3.60;57.05
27685;BME280;46113;50.130;8.526;2023-02-28T16:48:44;100115.97;;;-3.79;57.38
27685;BME280;46113;50.130;8.526;2023-02-28T16:51:12;100127.19;;;-3.77;57.22
27685;BME280;46113;50.130;8.526;2023-02-28T16:53:39;100128.25;;;-3.62;57.00
27685;BME280;46113;50.130;8.526;2023-02-28T16:56:14;100135.13;;;-3.66;57.03
27685;BME280;46113;50.130;8.526;2023-02-28T16:58:41;100135.94;;;-3.69;57.07
27685;BME280;46113;50.130;8.526;2023-02-28T17:01:08;100132.31;;;-3.82;57.64
27685;BME280;46113;50.130;8.526;2023-02-28T17:03:35;100127.81;;;-3.93;58.22
27685;BME280;46113;50.130;8.526;2023-02-28T17:06:03;100135.94;;;-4.23;58.57
27685;BME280;46113;50.130;8.526;2023-02-28T17:08:31;100132.69;;;-4.11;57.92
27685;BME280;46113;50.130;8.526;2023-02-28T17:10:59;100144.78;;;-4.10;58.52
27685;BME280;46113;50.130;8.526;2023-02-28T17:13:27;100143.78;;;-4.18;59.22
27685;BME280;46113;50.130;8.526;2023-02-28T17:15:54;100145.47;;;-4.20;59.01
27685;BME280;46113;50.130;8.526;2023-02-28T17:18:21;100144.25;;;-4.41;61.68
27685;BME280;46113;50.130;8.526;2023-02-28T17:20:48;100153.72;;;-4.40;60.04
27685;BME280;46113;50.130;8.526;2023-02-28T17:23:15;100158.75;;;-4.49;60.66
27685;BME280;46113;50.130;8.526;2023-02-28T17:25:42;100160.59;;;-4.42;59.68
27685;BME280;46113;50.130;8.526;2023-02-28T17:28:22;100160.44;;;-4.51;60.29
27685;BME280;46113;50.130;8.526;2023-02-28T17:30:49;100167.31;;;-4.52;59.74
27685;BME280;46113;50.130;8.526;2023-02-28T17:33:16;100177.44;;;-4.63;60.16
27685;BME280;46113;50.130;8.526;2023-02-28T17:35:43;100175.72;;;-4.64;60.35
27685;BME280;46113;50.130;8.526;2023-02-28T17:38:18;100177.38;;;-4.66;60.71
27685;BME280;46113;50.130;8.526;2023-02-28T17:40:45;100180.91;;;-4.61;60.79
27685;BME280;46113;50.130;8.526;2023-02-28T17:43:13;100186.03;;;-4.64;60.83
27685;BME280;46113;50.130;8.526;2023-02-28T17:45:41;100182.56;;;-4.64;60.34
27685;BME280;46113;50.130;8.526;2023-02-28T17:48:10;100185.16;;;-4.64;59.78
27685;BME280;46113;50.130;8.526;2023-02-28T17:50:37;100198.06;;;-4.64;60.40
27685;BME280;46113;50.130;8.526;2023-02-28T17:53:04;100197.06;;;-4.71;61.58
27685;BME280;46113;50.130;8.526;2023-02-28T17:55:30;100195.19;;;-4.80;62.05
27685;BME280;46113;50.130;8.526;2023-02-28T17:57:57;100197.81;;;-4.78;61.67
27685;BME280;46113;50.130;8.526;2023-02-28T18:00:24;100188.31;;;-4.79;62.49
27685;BME280;46113;50.130;8.526;2023-02-28T18:02:50;100184.13;;;-4.74;61.63
27685;BME280;46113;50.130;8.526;2023-02-28T18:05:17;100188.31;;;-4.78;62.03
27685;BME280;46113;50.130;8.526;2023-02-28T18:07:44;100190.81;;;-4.82;62.59
27685;BME280;46113;50.130;8.526;2023-02-28T18:10:20;100184.03;;;-4.77;61.63
27685;BME280;46113;50.130;8.526;2023-02-28T18:12:49;100190.88;;;-4.81;62.01
27685;BME280;46113;50.130;8.526;2023-02-28T18:15:18;100189.91;;;-4.86;61.95
27685;BME280;46113;50.130;8.526;2023-02-28T18:17:47;100189.13;;;-4.82;61.54
27685;BME280;46113;50.130;8.526;2023-02-28T18:20:14;100185.75;;;-4.79;61.58
27685;BME280;46113;50.130;8.526;2023-02-28T18:22:41;100196.06;;;-4.79;61.24
27685;BME280;46113;50.130;8.526;2023-02-28T18:25:10;100189.94;;;-4.84;61.82
27685;BME280;46113;50.130;8.526;2023-02-28T18:27:40;100202.00;;;-4.83;62.12
27685;BME280;46113;50.130;8.526;2023-02-28T18:30:29;100202.03;;;-4.82;61.65
27685;BME280;46113;50.130;8.526;2023-02-28T18:33:10;100198.50;;;-4.85;62.16
27685;BME280;46113;50.130;8.526;2023-02-28T18:35:56;100202.63;;;-4.95;62.29
27685;BME280;46113;50.130;8.526;2023-02-28T18:38:23;100198.69;;;-5.18;62.73
27685;BME280;46113;50.130;8.526;2023-02-28T18:40:57;100199.66;;;-5.12;62.19
27685;BME280;46113;50.130;8.526;2023-02-28T18:43:29;100195.44;;;-5.09;62.52
27685;BME280;46113;50.130;8.526;2023-02-28T18:45:56;100197.97;;;-5.12;62.85
27685;BME280;46113;50.130;8.526;2023-02-28T18:48:23;100198.78;;;-5.13;61.87
27685;BME280;46113;50.130;8.526;2023-02-28T18:50:50;100190.28;;;-5.09;61.91
27685;BME280;46113;50.130;8.526;2023-02-28T18:53:17;100199.75;;;-5.09;61.92
27685;BME280;46113;50.130;8.526;2023-02-28T18:55:44;100192.06;;;-5.06;61.84
27685;BME280;46113;50.130;8.526;2023-02-28T18:58:11;100186.94;;;-5.05;61.88
27685;BME280;46113;50.130;8.526;2023-02-28T19:00:38;100192.94;;;-5.06;61.72
27685;BME280;46113;50.130;8.526;2023-02-28T19:03:05;100197.22;;;-5.06;62.21
27685;BME280;46113;50.130;8.526;2023-02-28T19:05:32;100197.16;;;-5.09;61.90
27685;BME280;46113;50.130;8.526;2023-02-28T19:08:00;100195.81;;;-5.32;62.52
27685;BME280;46113;50.130;8.526;2023-02-28T19:10:27;100199.34;;;-5.28;62.52
27685;BME280;46113;50.130;8.526;2023-02-28T19:12:54;100201.19;;;-5.22;62.53
27685;BME280;46113;50.130;8.526;2023-02-28T19:15:21;100203.59;;;-5.30;62.80
27685;BME280;46113;50.130;8.526;2023-02-28T19:17:47;100200.22;;;-5.26;62.66
27685;BME280;46113;50.130;8.526;2023-02-28T19:20:14;100205.44;;;-5.24;62.40
27685;BME280;46113;50.130;8.526;2023-02-28T19:22:41;100203.63;;;-5.29;62.19
27685;BME280;46113;50.130;8.526;2023-02-28T19:25:09;100203.59;;;-5.30;61.74
27685;BME280;46113;50.130;8.526;2023-02-28T19:27:36;100201.03;;;-5.29;62.07
27685;BME280;46113;50.130;8.526;2023-02-28T19:30:03;100204.41;;;-5.33;62.43
27685;BME280;46113;50.130;8.526;2023-02-28T19:32:34;100203.72;;;-5.24;61.91
27685;BME280;46113;50.130;8.526;2023-02-28T19:35:01;100199.41;;;-5.25;62.16
27685;BME280;46113;50.130;8.526;2023-02-28T19:37:28;100195.88;;;-5.29;62.21
27685;BME280;46113;50.130;8.526;2023-02-28T19:39:55;100205.25;;;-5.32;62.42
27685;BME280;46113;50.130;8.526;2023-02-28T19:42:22;100205.22;;;-5.34;62.97
27685;BME280;46113;50.130;8.526;2023-02-28T19:44:48;100206.94;;;-5.34;62.76
27685;BME280;46113;50.130;8.526;2023-02-28T19:47:15;100206.88;;;-5.37;63.10
27685;BME280;46113;50.130;8.526;2023-02-28T19:49:42;100208.56;;;-5.39;63.66
27685;BME280;46113;50.130;8.526;2023-02-28T19:52:08;100216.03;;;-5.50;63.22
27685;BME280;46113;50.130;8.526;2023-02-28T19:54:40;100212.69;;;-5.46;63.30
27685;BME280;46113;50.130;8.526;2023-02-28T19:57:07;100218.56;;;-5.52;63.78
27685;BME280;46113;50.130;8.526;2023-02-28T19:59:34;100213.53;;;-5.46;63.93
27685;BME280;46113;50.130;8.526;2023-02-28T20:26:06;100212.28;;;-5.63;65.43
27685;BME280;46113;50.130;8.526;2023-02-28T20:28:33;100209.63;;;-5.67;65.15
27685;BME280;46113;50.130;8.526;2023-02-28T20:30:59;100208.72;;;-5.69;65.04
27685;BME280;46113;50.130;8.526;2023-02-28T20:33:26;100212.16;;;-5.70;64.63
27685;BME280;46113;50.130;8.526;2023-02-28T20:36:02;100206.16;;;-5.69;64.39
27685;BME280;46113;50.130;8.526;2023-02-28T20:38:30;100202.72;;;-5.68;64.66
27685;BME280;46113;50.130;8.526;2023-02-28T20:40:58;100206.09;;;-5.70;64.43
27685;BME280;46113;50.130;8.526;2023-02-28T20:43:25;100207.69;;;-5.75;65.23
27685;BME280;46113;50.130;8.526;2023-02-28T20:45:55;100209.63;;;-5.67;65.15
27685;BME280;46113;50.130;8.526;2023-02-28T20:48:24;100208.72;;;-5.69;64.73
27685;BME280;46113;50.130;8.526;2023-02-28T20:50:53;100210.50;;;-5.66;65.08
27685;BME280;46113;50.130;8.526;2023-02-28T20:53:21;100208.06;;;-5.60;65.08
27685;BME280;46113;50.130;8.526;2023-02-28T20:55:58;100203.63;;;-5.67;65.57
27685;BME280;46113;50.130;8.526;2023-02-28T20:58:26;100199.34;;;-5.65;64.80
27685;BME280;46113;50.130;8.526;2023-02-28T21:03:48;100204.41;;;-5.70;65.01
27685;BME280;46113;50.130;8.526;2023-02-28T21:06:16;100202.69;;;-5.71;65.56
27685;BME280;46113;50.130;8.526;2023-02-28T21:08:43;100215.56;;;-5.71;65.35
27685;BME280;46113;50.130;8.526;2023-02-28T21:11:17;100216.41;;;-5.70;65.82
27685;BME280;46113;50.130;8.526;2023-02-28T21:13:44;100207.94;;;-5.66;65.78
27685;BME280;46113;50.130;8.526;2023-02-28T21:16:14;100207.97;;;-5.64;65.26
27685;BME280;46113;50.130;8.526;2023-02-28T21:18:41;100210.56;;;-5.64;65.36
27685;BME280;46113;50.130;8.526;2023-02-28T21:21:15;100209.63;;;-5.67;66.17
27685;BME280;46113;50.130;8.526;2023-02-28T21:23:42;100214.69;;;-5.71;65.93
27685;BME280;46113;50.130;8.526;2023-02-28T21:26:17;100219.94;;;-5.67;66.46
27685;BME280;46113;50.130;8.526;2023-02-28T21:28:54;100214.03;;;-5.62;65.71
27685;BME280;46113;50.130;8.526;2023-02-28T21:31:23;100212.38;;;-5.60;65.35
27685;BME280;46113;50.130;8.526;2023-02-28T21:33:52;100206.34;;;-5.61;65.57
27685;BME280;46113;50.130;8.526;2023-02-28T21:36:22;100215.75;;;-5.63;65.25
27685;BME280;46113;50.130;8.526;2023-02-28T21:38:54;100212.16;;;-5.70;65.41
27685;BME280;46113;50.130;8.526;2023-02-28T21:41:22;100213.13;;;-5.64;65.42
